sensor_id;sensor_type;location;lat;lon;timestamp;P1;durP1;ratioP1;P2;durP2;ratioP2
63738;SDS011;68816;45.558;10.070;2023-06-24T00:01:25;7.68;;;4.30;;
63738;SDS011;68816;45.558;10.070;2023-06-24T00:03:51;9.82;;;5.82;;
63738;SDS011;68816;45.558;10.070;2023-06-24T00:06:21;10.82;;;6.82;;
63738;SDS011;68816;45.558;10.070;2023-06-24T00:08:51;9.60;;;5.90;;
63738;SDS011;68816;45.558;10.070;2023-06-24T00:11:17;8.10;;;6.38;;
63738;SDS011;68816;45.558;10.070;2023-06-24T00:13:43;11.95;;;6.75;;
63738;SDS011;68816;45.558;10.070;2023-06-24T00:16:09;10.68;;;6.95;;
63738;SDS011;68816;45.558;10.070;2023-06-24T00:18:35;10.70;;;6.28;;
63738;SDS011;68816;45.558;10.070;2023-06-24T00:21:01;10.82;;;6.97;;
63738;SDS011;68816;45.558;10.070;2023-06-24T00:23:28;11.38;;;6.95;;
63738;SDS011;68816;45.558;10.070;2023-06-24T00:25:55;9.18;;;7.00;;
63738;SDS011;68816;45.558;10.070;2023-06-24T00:28:21;9.52;;;6.72;;
63738;SDS011;68816;45.558;10.070;2023-06-24T00:30:48;9.65;;;7.30;;
63738;SDS011;68816;45.558;10.070;2023-06-24T00:33:14;9.15;;;6.90;;
63738;SDS011;68816;45.558;10.070;2023-06-24T00:35:40;12.60;;;7.40;;
63738;SDS011;68816;45.558;10.070;2023-06-24T00:38:06;9.20;;;7.05;;
63738;SDS011;68816;45.558;10.070;2023-06-24T00:40:32;12.57;;;7.88;;
63738;SDS011;68816;45.558;10.070;2023-06-24T00:42:58;11.25;;;7.50;;
63738;SDS011;68816;45.558;10.070;2023-06-24T00:45:29;12.65;;;7.68;;
63738;SDS011;68816;45.558;10.070;2023-06-24T00:48:00;13.65;;;8.38;;
63738;SDS011;68816;45.558;10.070;2023-06-24T00:50:26;13.07;;;8.48;;
63738;SDS011;68816;45.558;10.070;2023-06-24T00:52:51;12.13;;;8.75;;
63738;SDS011;68816;45.558;10.070;2023-06-24T00:55:17;13.23;;;8.65;;
63738;SDS011;68816;45.558;10.070;2023-06-24T00:57:45;11.52;;;8.50;;
63738;SDS011;68816;45.558;10.070;2023-06-24T01:00:16;9.70;;;7.25;;
63738;SDS011;68816;45.558;10.070;2023-06-24T01:02:47;13.77;;;8.40;;
63738;SDS011;68816;45.558;10.070;2023-06-24T01:05:14;11.82;;;7.82;;
63738;SDS011;68816;45.558;10.070;2023-06-24T01:07:40;9.52;;;6.55;;
63738;SDS011;68816;45.558;10.070;2023-06-24T01:10:07;9.85;;;7.00;;
63738;SDS011;68816;45.558;10.070;2023-06-24T01:12:38;11.07;;;6.53;;
63738;SDS011;68816;45.558;10.070;2023-06-24T01:15:06;11.05;;;7.18;;
63738;SDS011;68816;45.558;10.070;2023-06-24T01:20:03;11.48;;;7.47;;
63738;SDS011;68816;45.558;10.070;2023-06-24T01:36:33;11.52;;;7.45;;
63738;SDS011;68816;45.558;10.070;2023-06-24T01:39:02;10.45;;;7.22;;
63738;SDS011;68816;45.558;10.070;2023-06-24T01:41:35;12.45;;;7.50;;
63738;SDS011;68816;45.558;10.070;2023-06-24T01:44:05;10.45;;;7.65;;
63738;SDS011;68816;45.558;10.070;2023-06-24T01:46:35;10.50;;;7.15;;
63738;SDS011;68816;45.558;10.070;2023-06-24T01:49:02;11.02;;;7.82;;
63738;SDS011;68816;45.558;10.070;2023-06-24T01:51:29;12.38;;;8.30;;
63738;SDS011;68816;45.558;10.070;2023-06-24T01:54:05;16.02;;;8.35;;
63738;SDS011;68816;45.558;10.070;2023-06-24T01:56:33;15.13;;;8.02;;
63738;SDS011;68816;45.558;10.070;2023-06-24T01:59:02;12.30;;;7.35;;
63738;SDS011;68816;45.558;10.070;2023-06-24T02:01:30;12.40;;;7.78;;
63738;SDS011;68816;45.558;10.070;2023-06-24T02:03:57;12.27;;;7.80;;
63738;SDS011;68816;45.558;10.070;2023-06-24T02:06:25;10.05;;;7.45;;
63738;SDS011;68816;45.558;10.070;2023-06-24T02:08:53;13.55;;;8.30;;
63738;SDS011;68816;45.558;10.070;2023-06-24T02:11:21;13.60;;;7.57;;
63738;SDS011;68816;45.558;10.070;2023-06-24T02:13:48;14.02;;;7.80;;
63738;SDS011;68816;45.558;10.070;2023-06-24T02:16:17;26.35;;;8.88;;
63738;SDS011;68816;45.558;10.070;2023-06-24T02:18:43;13.38;;;7.65;;
63738;SDS011;68816;45.558;10.070;2023-06-24T02:21:10;10.85;;;7.68;;
63738;SDS011;68816;45.558;10.070;2023-06-24T02:23:37;11.00;;;8.00;;
63738;SDS011;68816;45.558;10.070;2023-06-24T02:26:03;11.25;;;8.00;;
63738;SDS011;68816;45.558;10.070;2023-06-24T02:28:31;15.35;;;8.43;;
63738;SDS011;68816;45.558;10.070;2023-06-24T02:30:58;12.85;;;7.22;;
63738;SDS011;68816;45.558;10.070;2023-06-24T02:33:24;11.23;;;7.53;;
63738;SDS011;68816;45.558;10.070;2023-06-24T02:35:51;13.75;;;7.43;;
63738;SDS011;68816;45.558;10.070;2023-06-24T02:38:17;14.80;;;8.10;;
63738;SDS011;68816;45.558;10.070;2023-06-24T02:40:43;10.63;;;7.60;;
63738;SDS011;68816;45.558;10.070;2023-06-24T02:43:10;11.32;;;7.25;;
63738;SDS011;68816;45.558;10.070;2023-06-24T02:45:36;11.27;;;7.47;;
63738;SDS011;68816;45.558;10.070;2023-06-24T02:48:02;11.57;;;7.07;;
63738;SDS011;68816;45.558;10.070;2023-06-24T02:50:30;13.85;;;7.22;;
63738;SDS011;68816;45.558;10.070;2023-06-24T02:52:56;9.52;;;7.15;;
63738;SDS011;68816;45.558;10.070;2023-06-24T02:55:22;11.35;;;7.80;;
63738;SDS011;68816;45.558;10.070;2023-06-24T02:57:48;11.50;;;7.53;;
63738;SDS011;68816;45.558;10.070;2023-06-24T03:00:15;9.57;;;7.03;;
63738;SDS011;68816;45.558;10.070;2023-06-24T03:02:41;11.63;;;6.88;;
63738;SDS011;68816;45.558;10.070;2023-06-24T03:05:09;10.35;;;6.03;;
63738;SDS011;68816;45.558;10.070;2023-06-24T03:07:36;9.40;;;6.15;;
63738;SDS011;68816;45.558;10.070;2023-06-24T03:10:03;14.63;;;6.80;;
63738;SDS011;68816;45.558;10.070;2023-06-24T03:12:30;10.60;;;6.70;;
63738;SDS011;68816;45.558;10.070;2023-06-24T03:14:56;10.23;;;6.80;;
63738;SDS011;68816;45.558;10.070;2023-06-24T03:17:21;10.43;;;6.82;;
63738;SDS011;68816;45.558;10.070;2023-06-24T03:19:47;9.60;;;6.90;;
63738;SDS011;68816;45.558;10.070;2023-06-24T03:22:12;9.50;;;6.45;;
63738;SDS011;68816;45.558;10.070;2023-06-24T03:24:38;12.52;;;7.60;;
63738;SDS011;68816;45.558;10.070;2023-06-24T03:27:03;11.43;;;7.75;;
63738;SDS011;68816;45.558;10.070;2023-06-24T03:29:29;10.15;;;7.45;;
63738;SDS011;68816;45.558;10.070;2023-06-24T03:31:54;12.75;;;7.25;;
63738;SDS011;68816;45.558;10.070;2023-06-24T03:34:20;14.27;;;7.05;;
63738;SDS011;68816;45.558;10.070;2023-06-24T03:36:46;16.13;;;6.80;;
63738;SDS011;68816;45.558;10.070;2023-06-24T03:39:11;16.63;;;7.05;;
63738;SDS011;68816;45.558;10.070;2023-06-24T03:41:37;19.23;;;6.82;;
63738;SDS011;68816;45.558;10.070;2023-06-24T03:44:02;12.05;;;6.07;;
63738;SDS011;68816;45.558;10.070;2023-06-24T03:46:28;13.93;;;5.72;;
63738;SDS011;68816;45.558;10.070;2023-06-24T03:48:58;19.75;;;7.00;;
63738;SDS011;68816;45.558;10.070;2023-06-24T03:51:25;20.48;;;7.53;;
63738;SDS011;68816;45.558;10.070;2023-06-24T03:53:50;16.75;;;6.70;;
63738;SDS011;68816;45.558;10.070;2023-06-24T03:56:16;15.23;;;6.30;;
63738;SDS011;68816;45.558;10.070;2023-06-24T03:58:42;14.30;;;5.88;;
63738;SDS011;68816;45.558;10.070;2023-06-24T04:01:07;9.63;;;5.35;;
63738;SDS011;68816;45.558;10.070;2023-06-24T04:03:34;13.38;;;5.60;;
63738;SDS011;68816;45.558;10.070;2023-06-24T04:06:00;12.88;;;5.55;;
63738;SDS011;68816;45.558;10.070;2023-06-24T04:08:26;10.52;;;5.45;;
63738;SDS011;68816;45.558;10.070;2023-06-24T04:10:54;12.70;;;5.68;;
63738;SDS011;68816;45.558;10.070;2023-06-24T04:13:20;16.40;;;6.00;;
63738;SDS011;68816;45.558;10.070;2023-06-24T04:15:45;20.65;;;6.20;;
63738;SDS011;68816;45.558;10.070;2023-06-24T04:18:11;11.75;;;5.57;;
63738;SDS011;68816;45.558;10.070;2023-06-24T04:20:37;9.63;;;5.47;;
63738;SDS011;68816;45.558;10.070;2023-06-24T04:23:03;9.30;;;5.22;;
63738;SDS011;68816;45.558;10.070;2023-06-24T04:25:29;10.07;;;5.30;;
63738;SDS011;68816;45.558;10.070;2023-06-24T04:27:55;11.80;;;5.40;;
63738;SDS011;68816;45.558;10.070;2023-06-24T04:30:20;11.52;;;5.43;;
63738;SDS011;68816;45.558;10.070;2023-06-24T04:32:45;12.45;;;5.38;;
63738;SDS011;68816;45.558;10.070;2023-06-24T04:35:11;12.00;;;5.38;;
63738;SDS011;68816;45.558;10.070;2023-06-24T04:37:36;9.27;;;5.03;;
63738;SDS011;68816;45.558;10.070;2023-06-24T04:40:02;11.75;;;5.45;;
63738;SDS011;68816;45.558;10.070;2023-06-24T04:42:28;8.57;;;4.63;;
63738;SDS011;68816;45.558;10.070;2023-06-24T04:44:53;9.82;;;4.35;;
63738;SDS011;68816;45.558;10.070;2023-06-24T04:47:18;9.32;;;4.95;;
63738;SDS011;68816;45.558;10.070;2023-06-24T04:49:44;7.53;;;4.88;;
63738;SDS011;68816;45.558;10.070;2023-06-24T04:52:11;9.85;;;5.30;;
63738;SDS011;68816;45.558;10.070;2023-06-24T04:54:36;8.60;;;5.32;;
63738;SDS011;68816;45.558;10.070;2023-06-24T04:57:02;9.48;;;5.13;;
63738;SDS011;68816;45.558;10.070;2023-06-24T04:59:28;11.18;;;4.85;;
63738;SDS011;68816;45.558;10.070;2023-06-24T05:01:53;15.50;;;5.80;;
63738;SDS011;68816;45.558;10.070;2023-06-24T05:04:19;13.13;;;5.22;;
63738;SDS011;68816;45.558;10.070;2023-06-24T05:06:44;9.88;;;5.80;;
63738;SDS011;68816;45.558;10.070;2023-06-24T05:09:10;12.63;;;5.82;;
63738;SDS011;68816;45.558;10.070;2023-06-24T05:11:38;9.40;;;5.82;;
63738;SDS011;68816;45.558;10.070;2023-06-24T05:14:05;11.23;;;5.05;;
63738;SDS011;68816;45.558;10.070;2023-06-24T05:16:30;12.50;;;5.55;;
63738;SDS011;68816;45.558;10.070;2023-06-24T05:18:55;11.98;;;5.50;;
63738;SDS011;68816;45.558;10.070;2023-06-24T05:21:21;13.43;;;5.53;;
63738;SDS011;68816;45.558;10.070;2023-06-24T05:23:46;17.95;;;5.00;;
63738;SDS011;68816;45.558;10.070;2023-06-24T05:26:12;17.05;;;5.35;;
63738;SDS011;68816;45.558;10.070;2023-06-24T05:28:37;12.38;;;5.13;;
63738;SDS011;68816;45.558;10.070;2023-06-24T05:31:03;11.82;;;5.30;;
63738;SDS011;68816;45.558;10.070;2023-06-24T05:33:28;10.75;;;4.72;;
63738;SDS011;68816;45.558;10.070;2023-06-24T05:35:54;10.00;;;4.63;;
63738;SDS011;68816;45.558;10.070;2023-06-24T05:38:19;7.22;;;4.85;;
63738;SDS011;68816;45.558;10.070;2023-06-24T05:40:45;8.15;;;4.30;;
63738;SDS011;68816;45.558;10.070;2023-06-24T05:43:10;7.03;;;4.40;;
63738;SDS011;68816;45.558;10.070;2023-06-24T05:45:36;6.35;;;4.28;;
63738;SDS011;68816;45.558;10.070;2023-06-24T05:48:02;6.07;;;3.97;;
63738;SDS011;68816;45.558;10.070;2023-06-24T05:50:28;7.15;;;4.55;;
63738;SDS011;68816;45.558;10.070;2023-06-24T05:52:53;6.38;;;4.28;;
63738;SDS011;68816;45.558;10.070;2023-06-24T05:55:19;5.47;;;3.92;;
63738;SDS011;68816;45.558;10.070;2023-06-24T05:57:44;5.90;;;3.88;;
63738;SDS011;68816;45.558;10.070;2023-06-24T06:00:10;6.65;;;4.30;;
63738;SDS011;68816;45.558;10.070;2023-06-24T06:02:36;6.05;;;4.20;;
63738;SDS011;68816;45.558;10.070;2023-06-24T06:05:02;5.82;;;4.50;;
63738;SDS011;68816;45.558;10.070;2023-06-24T06:07:28;5.68;;;4.18;;
63738;SDS011;68816;45.558;10.070;2023-06-24T06:09:53;6.60;;;4.35;;
63738;SDS011;68816;45.558;10.070;2023-06-24T06:12:19;6.75;;;3.95;;
63738;SDS011;68816;45.558;10.070;2023-06-24T06:14:44;6.05;;;4.10;;
63738;SDS011;68816;45.558;10.070;2023-06-24T06:17:11;6.68;;;4.32;;
63738;SDS011;68816;45.558;10.070;2023-06-24T06:19:37;6.47;;;4.32;;
63738;SDS011;68816;45.558;10.070;2023-06-24T06:22:05;7.07;;;4.57;;
63738;SDS011;68816;45.558;10.070;2023-06-24T06:24:30;6.57;;;4.18;;
63738;SDS011;68816;45.558;10.070;2023-06-24T06:26:57;10.55;;;4.40;;
63738;SDS011;68816;45.558;10.070;2023-06-24T06:29:22;10.20;;;5.18;;
63738;SDS011;68816;45.558;10.070;2023-06-24T06:31:48;9.38;;;5.25;;
63738;SDS011;68816;45.558;10.070;2023-06-24T06:34:13;8.02;;;4.50;;
63738;SDS011;68816;45.558;10.070;2023-06-24T06:36:39;12.82;;;5.05;;
63738;SDS011;68816;45.558;10.070;2023-06-24T06:39:04;7.97;;;4.65;;
63738;SDS011;68816;45.558;10.070;2023-06-24T06:41:30;6.15;;;4.43;;
63738;SDS011;68816;45.558;10.070;2023-06-24T06:43:55;8.93;;;4.95;;
63738;SDS011;68816;45.558;10.070;2023-06-24T06:46:21;9.68;;;4.22;;
63738;SDS011;68816;45.558;10.070;2023-06-24T06:48:46;9.77;;;5.20;;
63738;SDS011;68816;45.558;10.070;2023-06-24T06:51:12;7.65;;;4.43;;
63738;SDS011;68816;45.558;10.070;2023-06-24T06:53:38;8.20;;;4.93;;
63738;SDS011;68816;45.558;10.070;2023-06-24T06:56:04;10.40;;;4.85;;
63738;SDS011;68816;45.558;10.070;2023-06-24T06:58:29;7.75;;;4.38;;
63738;SDS011;68816;45.558;10.070;2023-06-24T07:00:54;6.63;;;4.60;;
63738;SDS011;68816;45.558;10.070;2023-06-24T07:03:20;6.78;;;4.28;;
63738;SDS011;68816;45.558;10.070;2023-06-24T07:05:46;6.57;;;4.55;;
63738;SDS011;68816;45.558;10.070;2023-06-24T07:08:12;7.15;;;4.35;;
63738;SDS011;68816;45.558;10.070;2023-06-24T07:10:37;6.05;;;4.30;;
63738;SDS011;68816;45.558;10.070;2023-06-24T07:13:03;5.65;;;4.30;;
63738;SDS011;68816;45.558;10.070;2023-06-24T07:15:28;6.22;;;4.18;;
63738;SDS011;68816;45.558;10.070;2023-06-24T07:17:54;7.35;;;4.30;;
63738;SDS011;68816;45.558;10.070;2023-06-24T07:20:21;5.63;;;4.43;;
63738;SDS011;68816;45.558;10.070;2023-06-24T07:22:47;7.78;;;4.50;;
63738;SDS011;68816;45.558;10.070;2023-06-24T07:25:13;5.93;;;4.25;;
63738;SDS011;68816;45.558;10.070;2023-06-24T07:27:38;9.65;;;4.63;;
63738;SDS011;68816;45.558;10.070;2023-06-24T07:30:04;7.03;;;4.40;;
63738;SDS011;68816;45.558;10.070;2023-06-24T07:32:30;8.43;;;4.30;;
63738;SDS011;68816;45.558;10.070;2023-06-24T07:34:56;6.82;;;4.57;;
63738;SDS011;68816;45.558;10.070;2023-06-24T07:37:21;7.45;;;4.30;;
63738;SDS011;68816;45.558;10.070;2023-06-24T07:39:47;6.70;;;4.40;;
63738;SDS011;68816;45.558;10.070;2023-06-24T07:42:13;6.75;;;4.80;;
63738;SDS011;68816;45.558;10.070;2023-06-24T07:44:44;8.07;;;4.25;;
63738;SDS011;68816;45.558;10.070;2023-06-24T07:47:10;7.63;;;4.75;;
63738;SDS011;68816;45.558;10.070;2023-06-24T07:49:35;8.90;;;5.03;;
63738;SDS011;68816;45.558;10.070;2023-06-24T07:52:00;6.05;;;4.25;;
63738;SDS011;68816;45.558;10.070;2023-06-24T07:54:27;5.20;;;4.00;;
63738;SDS011;68816;45.558;10.070;2023-06-24T07:56:52;4.68;;;3.50;;
63738;SDS011;68816;45.558;10.070;2023-06-24T07:59:18;5.63;;;4.22;;
63738;SDS011;68816;45.558;10.070;2023-06-24T08:01:43;7.55;;;4.00;;
63738;SDS011;68816;45.558;10.070;2023-06-24T08:04:08;7.20;;;4.28;;
63738;SDS011;68816;45.558;10.070;2023-06-24T08:06:34;8.43;;;4.55;;
63738;SDS011;68816;45.558;10.070;2023-06-24T08:08:59;5.93;;;4.00;;
63738;SDS011;68816;45.558;10.070;2023-06-24T08:11:25;8.15;;;4.00;;
63738;SDS011;68816;45.558;10.070;2023-06-24T08:13:51;6.82;;;3.90;;
63738;SDS011;68816;45.558;10.070;2023-06-24T08:16:16;7.53;;;3.85;;
63738;SDS011;68816;45.558;10.070;2023-06-24T08:18:43;8.93;;;4.35;;
63738;SDS011;68816;45.558;10.070;2023-06-24T08:21:08;7.47;;;4.05;;
63738;SDS011;68816;45.558;10.070;2023-06-24T08:23:34;7.45;;;4.22;;
63738;SDS011;68816;45.558;10.070;2023-06-24T08:25:59;8.10;;;4.28;;
63738;SDS011;68816;45.558;10.070;2023-06-24T08:28:25;9.27;;;4.63;;
63738;SDS011;68816;45.558;10.070;2023-06-24T08:30:50;6.82;;;3.88;;
63738;SDS011;68816;45.558;10.070;2023-06-24T08:33:16;9.25;;;4.50;;
63738;SDS011;68816;45.558;10.070;2023-06-24T08:35:41;7.13;;;3.90;;
63738;SDS011;68816;45.558;10.070;2023-06-24T08:38:07;5.03;;;3.78;;
63738;SDS011;68816;45.558;10.070;2023-06-24T08:40:32;6.85;;;4.10;;
63738;SDS011;68816;45.558;10.070;2023-06-24T08:42:57;5.18;;;3.63;;
63738;SDS011;68816;45.558;10.070;2023-06-24T08:45:23;4.93;;;3.25;;
63738;SDS011;68816;45.558;10.070;2023-06-24T08:47:49;7.18;;;3.40;;
63738;SDS011;68816;45.558;10.070;2023-06-24T08:50:15;5.03;;;3.30;;
63738;SDS011;68816;45.558;10.070;2023-06-24T08:52:44;5.47;;;3.70;;
63738;SDS011;68816;45.558;10.070;2023-06-24T08:55:15;6.47;;;3.65;;
63738;SDS011;68816;45.558;10.070;2023-06-24T08:57:42;8.07;;;3.45;;
63738;SDS011;68816;45.558;10.070;2023-06-24T09:00:07;5.45;;;3.10;;
63738;SDS011;68816;45.558;10.070;2023-06-24T09:02:39;4.68;;;3.35;;
63738;SDS011;68816;45.558;10.070;2023-06-24T09:05:05;4.53;;;3.30;;
63738;SDS011;68816;45.558;10.070;2023-06-24T09:07:31;3.88;;;3.05;;
63738;SDS011;68816;45.558;10.070;2023-06-24T09:09:56;4.75;;;2.92;;
63738;SDS011;68816;45.558;10.070;2023-06-24T09:12:23;6.05;;;2.92;;
63738;SDS011;68816;45.558;10.070;2023-06-24T09:14:50;3.15;;;2.53;;
63738;SDS011;68816;45.558;10.070;2023-06-24T09:17:16;4.50;;;2.35;;
63738;SDS011;68816;45.558;10.070;2023-06-24T09:19:42;2.63;;;2.15;;
63738;SDS011;68816;45.558;10.070;2023-06-24T09:22:08;3.45;;;2.10;;
63738;SDS011;68816;45.558;10.070;2023-06-24T09:24:44;3.70;;;2.13;;
63738;SDS011;68816;45.558;10.070;2023-06-24T09:27:12;5.15;;;2.00;;
63738;SDS011;68816;45.558;10.070;2023-06-24T09:29:40;4.53;;;2.33;;
63738;SDS011;68816;45.558;10.070;2023-06-24T09:32:06;6.13;;;2.40;;
63738;SDS011;68816;45.558;10.070;2023-06-24T09:34:32;3.95;;;2.30;;
63738;SDS011;68816;45.558;10.070;2023-06-24T09:36:58;3.15;;;2.00;;
63738;SDS011;68816;45.558;10.070;2023-06-24T09:39:24;2.72;;;2.10;;
63738;SDS011;68816;45.558;10.070;2023-06-24T09:41:55;2.60;;;2.20;;
63738;SDS011;68816;45.558;10.070;2023-06-24T09:44:21;4.55;;;2.40;;
63738;SDS011;68816;45.558;10.070;2023-06-24T09:46:47;3.45;;;2.20;;
63738;SDS011;68816;45.558;10.070;2023-06-24T09:49:13;4.53;;;2.20;;
63738;SDS011;68816;45.558;10.070;2023-06-24T09:51:39;3.08;;;2.33;;
63738;SDS011;68816;45.558;10.070;2023-06-24T09:54:10;3.65;;;2.28;;
63738;SDS011;68816;45.558;10.070;2023-06-24T09:56:38;5.22;;;2.50;;
63738;SDS011;68816;45.558;10.070;2023-06-24T09:59:07;3.35;;;2.60;;
63738;SDS011;68816;45.558;10.070;2023-06-24T10:01:36;4.43;;;2.60;;
63738;SDS011;68816;45.558;10.070;2023-06-24T10:04:05;5.00;;;2.90;;
63738;SDS011;68816;45.558;10.070;2023-06-24T10:06:32;4.30;;;2.47;;
63738;SDS011;68816;45.558;10.070;2023-06-24T10:08:59;3.35;;;2.63;;
63738;SDS011;68816;45.558;10.070;2023-06-24T10:11:25;3.45;;;2.30;;
63738;SDS011;68816;45.558;10.070;2023-06-24T10:13:51;3.25;;;2.45;;
63738;SDS011;68816;45.558;10.070;2023-06-24T10:16:17;3.80;;;2.85;;
63738;SDS011;68816;45.558;10.070;2023-06-24T10:18:44;4.63;;;2.63;;
63738;SDS011;68816;45.558;10.070;2023-06-24T10:21:10;4.03;;;2.80;;
63738;SDS011;68816;45.558;10.070;2023-06-24T10:26:25;3.53;;;2.90;;
63738;SDS011;68816;45.558;10.070;2023-06-24T10:32:13;4.50;;;2.45;;
63738;SDS011;68816;45.558;10.070;2023-06-24T10:39:38;6.78;;;2.80;;
63738;SDS011;68816;45.558;10.070;2023-06-24T10:44:47;2.85;;;2.30;;
63738;SDS011;68816;45.558;10.070;2023-06-24T10:47:13;3.20;;;2.63;;
63738;SDS011;68816;45.558;10.070;2023-06-24T10:49:38;3.13;;;2.50;;
63738;SDS011;68816;45.558;10.070;2023-06-24T10:52:04;2.88;;;2.22;;
63738;SDS011;68816;45.558;10.070;2023-06-24T10:54:33;4.28;;;2.17;;
63738;SDS011;68816;45.558;10.070;2023-06-24T10:56:58;4.95;;;2.08;;
63738;SDS011;68816;45.558;10.070;2023-06-24T10:59:24;2.50;;;2.17;;
63738;SDS011;68816;45.558;10.070;2023-06-24T11:01:53;4.57;;;2.28;;
63738;SDS011;68816;45.558;10.070;2023-06-24T11:04:19;3.50;;;2.50;;
63738;SDS011;68816;45.558;10.070;2023-06-24T11:06:59;3.75;;;2.15;;
63738;SDS011;68816;45.558;10.070;2023-06-24T11:09:26;2.75;;;2.35;;
63738;SDS011;68816;45.558;10.070;2023-06-24T11:11:51;3.38;;;2.40;;
63738;SDS011;68816;45.558;10.070;2023-06-24T11:14:17;4.20;;;2.38;;
63738;SDS011;68816;45.558;10.070;2023-06-24T11:16:47;3.53;;;2.38;;
63738;SDS011;68816;45.558;10.070;2023-06-24T11:19:13;3.20;;;2.40;;
63738;SDS011;68816;45.558;10.070;2023-06-24T11:21:39;4.18;;;2.38;;
63738;SDS011;68816;45.558;10.070;2023-06-24T11:24:04;4.00;;;2.53;;
63738;SDS011;68816;45.558;10.070;2023-06-24T11:26:31;5.68;;;2.20;;
63738;SDS011;68816;45.558;10.070;2023-06-24T11:28:58;2.63;;;2.05;;
63738;SDS011;68816;45.558;10.070;2023-06-24T11:31:26;4.70;;;2.70;;
63738;SDS011;68816;45.558;10.070;2023-06-24T11:33:52;4.18;;;2.58;;
63738;SDS011;68816;45.558;10.070;2023-06-24T11:36:18;3.38;;;2.70;;
63738;SDS011;68816;45.558;10.070;2023-06-24T11:38:48;2.83;;;2.45;;
63738;SDS011;68816;45.558;10.070;2023-06-24T11:41:14;3.35;;;2.60;;
63738;SDS011;68816;45.558;10.070;2023-06-24T11:43:46;4.97;;;2.50;;
63738;SDS011;68816;45.558;10.070;2023-06-24T11:46:21;3.75;;;2.60;;
63738;SDS011;68816;45.558;10.070;2023-06-24T11:48:49;3.55;;;2.35;;
63738;SDS011;68816;45.558;10.070;2023-06-24T11:51:14;2.95;;;2.40;;
63738;SDS011;68816;45.558;10.070;2023-06-24T11:53:40;6.63;;;2.55;;
63738;SDS011;68816;45.558;10.070;2023-06-24T11:56:08;4.60;;;2.78;;
63738;SDS011;68816;45.558;10.070;2023-06-24T11:58:34;6.25;;;2.92;;
63738;SDS011;68816;45.558;10.070;2023-06-24T12:01:00;6.78;;;2.53;;
63738;SDS011;68816;45.558;10.070;2023-06-24T12:03:28;4.25;;;2.70;;
63738;SDS011;68816;45.558;10.070;2023-06-24T12:05:54;3.33;;;2.72;;
63738;SDS011;68816;45.558;10.070;2023-06-24T12:08:20;3.13;;;2.60;;
63738;SDS011;68816;45.558;10.070;2023-06-24T12:10:47;6.13;;;2.55;;
63738;SDS011;68816;45.558;10.070;2023-06-24T12:13:13;3.08;;;2.40;;
63738;SDS011;68816;45.558;10.070;2023-06-24T12:15:38;5.82;;;2.90;;
63738;SDS011;68816;45.558;10.070;2023-06-24T12:18:04;3.78;;;2.90;;
63738;SDS011;68816;45.558;10.070;2023-06-24T12:20:33;6.43;;;2.88;;
63738;SDS011;68816;45.558;10.070;2023-06-24T12:23:00;7.07;;;2.75;;
63738;SDS011;68816;45.558;10.070;2023-06-24T12:25:25;6.47;;;2.63;;
63738;SDS011;68816;45.558;10.070;2023-06-24T12:27:51;5.05;;;2.42;;
63738;SDS011;68816;45.558;10.070;2023-06-24T12:30:16;4.15;;;2.63;;
63738;SDS011;68816;45.558;10.070;2023-06-24T12:32:42;3.95;;;2.47;;
63738;SDS011;68816;45.558;10.070;2023-06-24T12:35:09;3.72;;;2.70;;
63738;SDS011;68816;45.558;10.070;2023-06-24T12:37:35;5.25;;;2.50;;
63738;SDS011;68816;45.558;10.070;2023-06-24T12:40:02;3.10;;;2.75;;
63738;SDS011;68816;45.558;10.070;2023-06-24T12:42:28;3.33;;;2.95;;
63738;SDS011;68816;45.558;10.070;2023-06-24T12:44:53;4.50;;;2.80;;
63738;SDS011;68816;45.558;10.070;2023-06-24T12:47:19;3.90;;;2.90;;
63738;SDS011;68816;45.558;10.070;2023-06-24T12:49:45;4.75;;;2.90;;
63738;SDS011;68816;45.558;10.070;2023-06-24T12:52:12;4.63;;;2.78;;
63738;SDS011;68816;45.558;10.070;2023-06-24T12:54:38;3.80;;;2.75;;
63738;SDS011;68816;45.558;10.070;2023-06-24T12:57:04;4.22;;;3.00;;
63738;SDS011;68816;45.558;10.070;2023-06-24T12:59:29;3.70;;;2.63;;
63738;SDS011;68816;45.558;10.070;2023-06-24T13:01:55;3.05;;;2.50;;
63738;SDS011;68816;45.558;10.070;2023-06-24T13:04:20;3.22;;;2.80;;
63738;SDS011;68816;45.558;10.070;2023-06-24T13:06:48;4.57;;;3.13;;
63738;SDS011;68816;45.558;10.070;2023-06-24T13:09:14;4.97;;;2.70;;
63738;SDS011;68816;45.558;10.070;2023-06-24T13:11:40;3.63;;;2.90;;
63738;SDS011;68816;45.558;10.070;2023-06-24T13:14:05;4.05;;;3.00;;
63738;SDS011;68816;45.558;10.070;2023-06-24T13:16:31;3.92;;;2.60;;
63738;SDS011;68816;45.558;10.070;2023-06-24T13:18:56;5.93;;;2.70;;
63738;SDS011;68816;45.558;10.070;2023-06-24T13:21:22;4.50;;;3.05;;
63738;SDS011;68816;45.558;10.070;2023-06-24T13:23:48;4.18;;;2.85;;
63738;SDS011;68816;45.558;10.070;2023-06-24T13:26:14;4.45;;;2.83;;
63738;SDS011;68816;45.558;10.070;2023-06-24T13:28:40;3.25;;;2.50;;
63738;SDS011;68816;45.558;10.070;2023-06-24T13:31:05;4.50;;;2.80;;
63738;SDS011;68816;45.558;10.070;2023-06-24T13:33:31;4.28;;;2.70;;
63738;SDS011;68816;45.558;10.070;2023-06-24T13:35:57;6.13;;;3.17;;
63738;SDS011;68816;45.558;10.070;2023-06-24T13:38:22;7.60;;;2.60;;
63738;SDS011;68816;45.558;10.070;2023-06-24T13:40:48;3.78;;;2.60;;
63738;SDS011;68816;45.558;10.070;2023-06-24T13:43:13;5.55;;;3.13;;
63738;SDS011;68816;45.558;10.070;2023-06-24T13:45:39;4.53;;;2.50;;
63738;SDS011;68816;45.558;10.070;2023-06-24T13:48:04;3.58;;;2.58;;
63738;SDS011;68816;45.558;10.070;2023-06-24T13:50:30;4.15;;;3.10;;
63738;SDS011;68816;45.558;10.070;2023-06-24T13:52:55;4.82;;;3.08;;
63738;SDS011;68816;45.558;10.070;2023-06-24T13:55:21;4.68;;;3.08;;
63738;SDS011;68816;45.558;10.070;2023-06-24T13:57:46;4.75;;;3.00;;
63738;SDS011;68816;45.558;10.070;2023-06-24T14:00:12;4.97;;;2.92;;
63738;SDS011;68816;45.558;10.070;2023-06-24T14:02:38;3.05;;;2.75;;
63738;SDS011;68816;45.558;10.070;2023-06-24T14:05:05;3.50;;;2.80;;
63738;SDS011;68816;45.558;10.070;2023-06-24T14:07:31;5.53;;;3.20;;
63738;SDS011;68816;45.558;10.070;2023-06-24T14:09:56;6.93;;;2.97;;
63738;SDS011;68816;45.558;10.070;2023-06-24T14:12:22;6.28;;;3.47;;
63738;SDS011;68816;45.558;10.070;2023-06-24T14:14:47;3.85;;;3.00;;
63738;SDS011;68816;45.558;10.070;2023-06-24T14:17:13;5.35;;;3.10;;
63738;SDS011;68816;45.558;10.070;2023-06-24T14:19:39;3.63;;;2.92;;
63738;SDS011;68816;45.558;10.070;2023-06-24T14:22:05;4.10;;;2.70;;
63738;SDS011;68816;45.558;10.070;2023-06-24T14:24:31;6.22;;;2.30;;
63738;SDS011;68816;45.558;10.070;2023-06-24T14:26:57;4.30;;;2.83;;
63738;SDS011;68816;45.558;10.070;2023-06-24T14:29:22;3.85;;;2.80;;
63738;SDS011;68816;45.558;10.070;2023-06-24T14:31:48;6.13;;;2.80;;
63738;SDS011;68816;45.558;10.070;2023-06-24T14:34:13;4.32;;;3.10;;
63738;SDS011;68816;45.558;10.070;2023-06-24T14:36:39;3.42;;;2.90;;
63738;SDS011;68816;45.558;10.070;2023-06-24T14:39:05;4.47;;;2.92;;
63738;SDS011;68816;45.558;10.070;2023-06-24T14:41:31;3.60;;;2.90;;
63738;SDS011;68816;45.558;10.070;2023-06-24T14:43:57;5.00;;;3.03;;
63738;SDS011;68816;45.558;10.070;2023-06-24T14:46:22;5.47;;;3.03;;
63738;SDS011;68816;45.558;10.070;2023-06-24T14:48:48;5.50;;;3.00;;
63738;SDS011;68816;45.558;10.070;2023-06-24T14:51:13;6.80;;;2.97;;
63738;SDS011;68816;45.558;10.070;2023-06-24T14:53:39;3.97;;;2.80;;
63738;SDS011;68816;45.558;10.070;2023-06-24T14:56:05;3.25;;;2.47;;